Agoura Hills, California
Current Conditions -  °F | °C
As of 7:51 AM on Tuesday 21 Oct 2014 (Local Time) from KVNY Reporting Station
Moderate Fog Moderate Fog  
Wind Chill: 57°   Ceiling: 100
Heat Index: 57°   Visibility: 0mi
Dew Point: 56°   Wind: 3mph
Humidity: 96%   Direction: 180°S
Pressure: 29.92"   Gusts: NA
Location:  34.15°N, 118.77°W
Report Text: KVNY 211451Z 18003KT M1/4SM R16R/0600V0800FT FG VV001 14/13 A2992 RMK AO2 SLP126 T01390133 53006
Loading
Personal Weather Stations






























Interactive Weather Map
Tropical Storm Tracking
New forecast layout! Learn more

10-Day Weather Forecast

Advertisements
Track Severe Weather on mobile